createdAt,value
2018-11-03T00:01:14.069Z,17.97
2018-11-03T00:03:46.529Z,18.20
2018-11-03T00:06:19.009Z,20.30
2018-11-03T00:08:51.399Z,16.83
2018-11-03T00:11:23.827Z,18.33
2018-11-03T00:13:56.221Z,17.93
2018-11-03T00:16:29.008Z,17.57
2018-11-03T00:19:01.580Z,15.80
2018-11-03T00:21:34.047Z,17.27
2018-11-03T00:24:06.541Z,17.77
2018-11-03T00:26:38.982Z,15.80
2018-11-03T00:29:11.425Z,16.93
2018-11-03T00:31:43.842Z,16.93
2018-11-03T00:34:16.739Z,16.23
2018-11-03T00:36:49.142Z,17.83
2018-11-03T00:39:21.672Z,15.63
2018-11-03T00:41:54.061Z,17.60
2018-11-03T00:44:26.576Z,17.77
2018-11-03T00:46:59.055Z,19.17
2018-11-03T00:49:31.577Z,17.17
2018-11-03T00:52:04.536Z,20.27
2018-11-03T00:54:37.229Z,19.33
2018-11-03T00:57:09.646Z,17.17
2018-11-03T00:59:42.309Z,15.57
2018-11-03T01:02:14.718Z,17.97
2018-11-03T01:04:47.190Z,17.03
2018-11-03T01:07:19.632Z,19.20
2018-11-03T01:09:52.177Z,18.93
2018-11-03T01:12:24.605Z,19.73
2018-11-03T01:14:56.999Z,17.73
2018-11-03T01:17:29.469Z,17.50
2018-11-03T01:20:01.905Z,20.03
2018-11-03T01:22:34.462Z,17.27
2018-11-03T01:25:07.550Z,17.17
2018-11-03T01:27:40.218Z,16.83
2018-11-03T01:30:14.150Z,19.63
2018-11-03T01:32:46.600Z,20.37
2018-11-03T01:35:19.082Z,17.90
2018-11-03T01:37:51.560Z,19.17
2018-11-03T01:40:24.214Z,20.83
2018-11-03T01:42:56.686Z,19.63
2018-11-03T01:45:29.275Z,18.17
2018-11-03T01:48:01.784Z,20.60
2018-11-03T01:50:34.229Z,22.17
2018-11-03T01:53:06.658Z,21.37
2018-11-03T01:55:39.337Z,20.17
2018-11-03T01:58:11.812Z,20.37
2018-11-03T02:00:44.277Z,21.07
2018-11-03T02:03:16.660Z,21.07
2018-11-03T02:05:49.234Z,20.87
2018-11-03T02:08:21.688Z,21.43
2018-11-03T02:10:54.149Z,21.53
2018-11-03T02:13:26.682Z,21.43
2018-11-03T02:15:59.156Z,18.37
2018-11-03T02:18:31.605Z,18.60
2018-11-03T02:21:04.313Z,23.33
2018-11-03T02:23:36.974Z,21.50
2018-11-03T02:26:09.514Z,20.37
2018-11-03T02:28:41.984Z,18.93
2018-11-03T02:31:14.491Z,24.83
2018-11-03T02:33:46.897Z,21.60
2018-11-03T02:36:19.333Z,21.53
2018-11-03T02:38:51.936Z,21.43
2018-11-03T02:41:24.475Z,21.60
2018-11-03T02:43:56.954Z,21.80
2018-11-03T02:46:29.330Z,25.80
2018-11-03T02:49:02.113Z,23.93
2018-11-03T02:51:34.824Z,24.00
2018-11-03T02:54:07.340Z,21.10
2018-11-03T02:56:39.782Z,22.80
2018-11-03T02:59:12.267Z,21.70
2018-11-03T03:01:44.722Z,24.47
2018-11-03T03:04:17.446Z,24.67
2018-11-03T03:06:49.852Z,22.20
2018-11-03T03:09:22.282Z,27.03
2018-11-03T03:11:54.750Z,23.90
2018-11-03T03:14:27.134Z,21.80
2018-11-03T03:16:59.539Z,24.87
2018-11-03T03:19:31.988Z,25.47
2018-11-03T03:22:04.493Z,25.20
2018-11-03T03:24:36.919Z,24.73
2018-11-03T03:27:09.403Z,25.97
2018-11-03T03:29:41.964Z,24.60
2018-11-03T03:32:14.303Z,22.83
2018-11-03T03:34:46.694Z,22.63
2018-11-03T03:37:19.158Z,22.90
2018-11-03T03:39:51.549Z,25.63
2018-11-03T03:42:23.966Z,24.03
2018-11-03T03:44:56.387Z,23.73
2018-11-03T03:47:28.780Z,22.23
2018-11-03T03:50:01.282Z,22.23
2018-11-03T03:52:33.690Z,26.87
2018-11-03T03:55:06.650Z,24.83
2018-11-03T03:57:39.118Z,23.97
2018-11-03T04:00:12.196Z,22.77
2018-11-03T04:02:44.627Z,23.63
2018-11-03T04:05:17.176Z,22.97
2018-11-03T04:07:49.623Z,23.93
2018-11-03T04:10:22.034Z,26.63
2018-11-03T04:12:54.440Z,25.63
2018-11-03T04:15:26.886Z,25.13
2018-11-03T04:17:59.297Z,26.23
2018-11-03T04:20:31.699Z,23.33
2018-11-03T04:23:04.380Z,26.70
2018-11-03T04:25:36.786Z,29.40
2018-11-03T04:28:09.357Z,25.27
2018-11-03T04:30:41.827Z,25.43
2018-11-03T04:33:14.265Z,27.30
2018-11-03T04:35:46.720Z,23.70
2018-11-03T04:38:19.090Z,25.77
2018-11-03T04:40:51.734Z,24.47
2018-11-03T04:43:24.205Z,24.93
2018-11-03T04:45:56.821Z,26.83
2018-11-03T04:48:29.319Z,25.23
2018-11-03T04:51:01.869Z,25.47
2018-11-03T04:53:34.525Z,23.50
2018-11-03T04:56:06.943Z,27.47
2018-11-03T04:58:39.694Z,22.17
2018-11-03T05:01:12.095Z,26.77
2018-11-03T05:03:44.546Z,27.17
2018-11-03T05:06:16.916Z,27.30
2018-11-03T05:08:49.412Z,24.93
2018-11-03T05:11:22.070Z,26.97
2018-11-03T05:13:54.823Z,30.53
2018-11-03T05:16:27.225Z,28.10
2018-11-03T05:18:59.989Z,26.67
2018-11-03T05:21:32.423Z,29.47
2018-11-03T05:24:05.010Z,29.43
2018-11-03T05:26:37.718Z,30.67
2018-11-03T05:29:10.116Z,30.03
2018-11-03T05:31:42.653Z,34.80
2018-11-03T05:34:15.055Z,33.67
2018-11-03T05:36:47.461Z,33.50
2018-11-03T05:39:19.872Z,34.93
2018-11-03T05:41:52.306Z,36.90
2018-11-03T05:44:24.711Z,34.17
2018-11-03T05:46:57.274Z,34.00
2018-11-03T05:49:30.075Z,35.27
2018-11-03T05:52:02.557Z,33.30
2018-11-03T05:54:34.967Z,33.63
2018-11-03T05:57:07.793Z,29.50
2018-11-03T05:59:40.200Z,29.80
2018-11-03T06:02:12.573Z,32.70
2018-11-03T06:04:44.973Z,29.80
2018-11-03T06:07:17.474Z,31.87
2018-11-03T06:09:50.078Z,27.40
2018-11-03T06:12:22.599Z,31.20
2018-11-03T06:14:55.011Z,30.50
2018-11-03T06:17:27.498Z,29.23
2018-11-03T06:19:59.925Z,29.13
2018-11-03T06:22:32.399Z,30.07
2018-11-03T06:25:05.949Z,29.13
2018-11-03T06:27:38.715Z,34.80
2018-11-03T06:30:11.514Z,27.53
2018-11-03T06:32:43.973Z,28.60
2018-11-03T06:35:16.509Z,27.27
2018-11-03T06:37:48.914Z,29.40
2018-11-03T06:40:21.698Z,27.70
2018-11-03T06:42:54.161Z,27.13
2018-11-03T06:45:26.550Z,30.27
2018-11-03T06:47:59.335Z,29.67
2018-11-03T06:50:31.726Z,28.00
2018-11-03T06:53:05.261Z,27.13
2018-11-03T06:55:38.122Z,31.33
2018-11-03T06:58:10.771Z,25.90
2018-11-03T07:00:43.262Z,32.77
2018-11-03T07:03:15.735Z,26.77
2018-11-03T07:05:48.110Z,30.73
2018-11-03T07:08:20.556Z,29.43
2018-11-03T07:10:52.978Z,27.03
2018-11-03T07:13:25.517Z,28.43
2018-11-03T07:15:57.877Z,32.23
2018-11-03T07:18:30.335Z,25.30
2018-11-03T07:21:03.048Z,27.57
2018-11-03T07:23:35.686Z,29.67
2018-11-03T07:26:08.146Z,27.90
2018-11-03T07:28:40.642Z,27.73
2018-11-03T07:31:13.096Z,28.47
2018-11-03T07:33:45.563Z,26.43
2018-11-03T07:36:18.348Z,28.60
2018-11-03T07:38:51.831Z,29.57
2018-11-03T07:41:24.680Z,30.37
2018-11-03T07:43:57.233Z,30.50
2018-11-03T07:46:30.091Z,27.50
2018-11-03T07:49:02.792Z,29.53
2018-11-03T07:51:35.098Z,29.33
2018-11-03T07:54:07.716Z,29.27
2018-11-03T07:56:40.342Z,27.83
2018-11-03T07:59:12.814Z,30.30
2018-11-03T08:01:45.216Z,31.23
2018-11-03T08:04:17.612Z,30.80
2018-11-03T08:06:50.122Z,32.90
2018-11-03T08:09:22.753Z,29.03
2018-11-03T08:11:55.169Z,30.23
2018-11-03T08:14:28.110Z,31.10
2018-11-03T08:17:00.522Z,32.00
2018-11-03T08:19:33.069Z,31.63
2018-11-03T08:22:05.586Z,32.57
2018-11-03T08:24:38.058Z,31.87
2018-11-03T08:27:10.562Z,38.33
2018-11-03T08:29:43.100Z,41.33
2018-11-03T08:32:15.654Z,39.97
2018-11-03T08:34:48.266Z,35.87
2018-11-03T08:37:20.758Z,38.43
2018-11-03T08:39:53.670Z,36.00
2018-11-03T08:42:26.083Z,33.57
2018-11-03T08:44:58.578Z,30.60
2018-11-03T08:47:30.993Z,32.57
2018-11-03T08:50:03.801Z,33.47
2018-11-03T08:52:36.362Z,30.80
2018-11-03T08:55:10.080Z,27.87
2018-11-03T08:57:42.798Z,31.87
2018-11-03T09:00:15.371Z,40.30
2018-11-03T09:02:47.887Z,34.20
2018-11-03T09:05:20.424Z,31.80
2018-11-03T09:07:52.838Z,34.33
2018-11-03T09:10:25.714Z,32.27
2018-11-03T09:12:58.167Z,27.77
2018-11-03T09:15:30.649Z,29.20
2018-11-03T09:18:03.004Z,31.40
2018-11-03T09:20:35.421Z,30.90
2018-11-03T09:23:07.838Z,29.83
2018-11-03T09:25:40.263Z,31.67
2018-11-03T09:28:12.709Z,24.43
2018-11-03T09:30:45.142Z,28.17
2018-11-03T09:33:17.597Z,22.90
2018-11-03T09:35:50.165Z,27.43
2018-11-03T09:38:22.682Z,25.83
2018-11-03T09:40:55.488Z,24.80
2018-11-03T09:43:27.989Z,23.83
2018-11-03T09:46:00.376Z,21.63
2018-11-03T09:48:32.790Z,21.00
2018-11-03T09:51:05.270Z,21.33
2018-11-03T09:53:37.793Z,19.30
2018-11-03T09:56:10.398Z,21.90
2018-11-03T09:58:42.794Z,18.07
2018-11-03T10:01:15.382Z,18.33
2018-11-03T10:03:47.780Z,14.00
2018-11-03T10:06:20.657Z,18.40
2018-11-03T10:08:53.138Z,15.37
2018-11-03T10:11:25.987Z,16.83
2018-11-03T10:13:58.399Z,15.40
2018-11-03T10:16:30.979Z,12.63
2018-11-03T10:19:03.476Z,13.43
2018-11-03T10:21:35.888Z,15.73
2018-11-03T10:24:08.361Z,14.70
2018-11-03T10:26:40.823Z,9.77
2018-11-03T10:29:13.277Z,11.63
2018-11-03T10:31:45.730Z,10.90
2018-11-03T10:34:18.127Z,13.80
2018-11-03T10:36:50.658Z,15.07
2018-11-03T10:39:23.127Z,17.23
2018-11-03T10:41:55.948Z,12.63
2018-11-03T10:44:28.399Z,21.50
2018-11-03T10:47:01.293Z,13.30
2018-11-03T10:49:33.840Z,11.33
2018-11-03T10:52:06.487Z,13.53
2018-11-03T10:54:39.232Z,14.67
2018-11-03T10:57:12.368Z,15.00
2018-11-03T10:59:44.895Z,12.33
2018-11-03T11:02:23.086Z,16.93
2018-11-03T11:07:07.957Z,13.87
2018-11-03T11:09:46.198Z,15.23
2018-11-03T11:12:24.374Z,14.00
2018-11-03T11:14:57.135Z,16.40
2018-11-03T11:17:29.710Z,13.77
2018-11-03T11:20:02.274Z,14.97
2018-11-03T11:22:35.142Z,14.10
2018-11-03T11:25:09.226Z,14.60
2018-11-03T11:27:41.562Z,14.43
2018-11-03T11:30:13.993Z,11.70
2018-11-03T11:32:46.577Z,19.63
2018-11-03T11:35:19.030Z,12.80
2018-11-03T11:37:51.878Z,11.80
2018-11-03T11:40:24.488Z,12.20
2018-11-03T11:42:57.069Z,15.57
2018-11-03T11:45:29.484Z,13.10
2018-11-03T11:48:01.883Z,13.00
2018-11-03T11:50:34.338Z,14.47
2018-11-03T11:53:06.875Z,15.80
2018-11-03T11:55:40.194Z,11.73
2018-11-03T11:58:14.254Z,10.90
2018-11-03T12:00:47.198Z,14.23
2018-11-03T12:03:19.643Z,15.53
2018-11-03T12:05:52.062Z,13.43
2018-11-03T12:08:24.493Z,12.07
2018-11-03T12:10:56.978Z,9.43
2018-11-03T12:13:29.382Z,11.83
2018-11-03T12:16:01.935Z,13.50
2018-11-03T12:18:34.717Z,11.97
2018-11-03T12:21:07.207Z,11.50
2018-11-03T12:23:39.614Z,10.13
2018-11-03T12:26:12.036Z,12.07
2018-11-03T12:28:44.459Z,14.13
2018-11-03T12:31:16.952Z,14.07
2018-11-03T12:33:49.632Z,14.43
2018-11-03T12:36:22.192Z,10.70
2018-11-03T12:38:54.693Z,14.13
2018-11-03T12:41:27.184Z,13.20
2018-11-03T12:43:59.612Z,11.93
2018-11-03T12:46:32.603Z,17.60
2018-11-03T12:49:05.020Z,13.10
2018-11-03T12:51:37.627Z,10.20
2018-11-03T12:54:09.998Z,9.50
2018-11-03T12:56:42.514Z,9.57
2018-11-03T12:59:15.161Z,11.20
2018-11-03T13:01:47.800Z,12.73
2018-11-03T13:04:20.300Z,8.70
2018-11-03T13:06:53.128Z,11.07
2018-11-03T13:09:26.890Z,10.60
2018-11-03T13:11:59.543Z,10.57
2018-11-03T13:14:32.141Z,11.77
2018-11-03T13:17:04.820Z,9.53
2018-11-03T13:19:38.758Z,8.20
2018-11-03T13:22:11.167Z,9.10
2018-11-03T13:24:43.579Z,9.00
2018-11-03T13:27:16.079Z,14.43
2018-11-03T13:29:48.853Z,10.23
2018-11-03T13:32:21.350Z,12.30
2018-11-03T13:34:53.912Z,10.37
2018-11-03T13:37:26.221Z,10.47
2018-11-03T13:39:58.736Z,10.93
2018-11-03T13:42:31.140Z,6.97
2018-11-03T13:45:03.656Z,9.10
2018-11-03T13:47:37.000Z,10.73
2018-11-03T13:50:15.615Z,9.90
2018-11-03T13:52:48.470Z,9.47
2018-11-03T13:55:20.925Z,8.07
2018-11-03T13:57:53.385Z,8.97
2018-11-03T14:00:25.896Z,11.10
2018-11-03T14:02:58.349Z,11.27
2018-11-03T14:05:30.796Z,13.20
2018-11-03T14:08:03.439Z,8.93
2018-11-03T14:10:35.894Z,11.03
2018-11-03T14:13:08.379Z,10.30
2018-11-03T14:15:41.119Z,6.30
2018-11-03T14:18:13.518Z,9.77
2018-11-03T14:20:46.649Z,11.60
2018-11-03T14:23:19.193Z,6.63
2018-11-03T14:25:51.579Z,11.63
2018-11-03T14:28:24.278Z,7.40
2018-11-03T14:30:56.809Z,7.17
2018-11-03T14:33:29.564Z,9.10
2018-11-03T14:36:02.019Z,8.83
2018-11-03T14:38:34.465Z,8.50
2018-11-03T14:41:07.154Z,8.43
2018-11-03T14:43:39.588Z,8.17
2018-11-03T14:46:12.299Z,9.77
2018-11-03T14:48:44.724Z,7.00
2018-11-03T14:51:17.154Z,7.43
2018-11-03T14:53:49.590Z,6.40
2018-11-03T14:56:22.078Z,10.40
2018-11-03T14:58:54.535Z,6.73
2018-11-03T15:01:27.286Z,10.60
2018-11-03T15:03:59.665Z,6.60
2018-11-03T15:06:32.150Z,8.17
2018-11-03T15:09:05.978Z,6.40
2018-11-03T15:11:38.415Z,8.67
2018-11-03T15:14:10.928Z,9.77
2018-11-03T15:16:43.355Z,9.57
2018-11-03T15:19:15.737Z,9.53
2018-11-03T15:21:48.229Z,7.80
2018-11-03T15:24:20.659Z,8.60
2018-11-03T15:26:53.083Z,6.80
2018-11-03T15:29:25.463Z,6.90
2018-11-03T15:31:57.877Z,8.63
2018-11-03T15:34:30.300Z,10.63
2018-11-03T15:37:02.855Z,8.40
2018-11-03T15:39:35.248Z,7.97
2018-11-03T15:42:07.826Z,7.80
2018-11-03T15:44:40.235Z,11.43
2018-11-03T15:47:12.673Z,9.53
2018-11-03T15:49:45.087Z,9.57
2018-11-03T15:52:17.506Z,7.83
2018-11-03T15:54:50.245Z,7.77
2018-11-03T15:57:22.645Z,11.40
2018-11-03T15:59:55.071Z,9.43
2018-11-03T16:02:28.092Z,8.67
2018-11-03T16:05:00.899Z,10.10
2018-11-03T16:07:33.284Z,12.00
2018-11-03T16:10:06.474Z,8.77
2018-11-03T16:12:39.004Z,11.70
2018-11-03T16:15:12.321Z,10.53
2018-11-03T16:17:44.841Z,10.10
2018-11-03T16:20:17.327Z,7.90
2018-11-03T16:22:50.255Z,11.50
2018-11-03T16:25:22.605Z,9.50
2018-11-03T16:27:55.010Z,11.10
2018-11-03T16:30:27.406Z,9.33
2018-11-03T16:32:59.867Z,9.00
2018-11-03T16:35:32.321Z,8.57
2018-11-03T16:38:04.867Z,13.13
2018-11-03T16:40:37.319Z,10.23
2018-11-03T16:43:09.807Z,13.03
2018-11-03T16:45:42.367Z,12.20
2018-11-03T16:48:14.754Z,12.23
2018-11-03T16:50:47.228Z,13.53
2018-11-03T16:53:19.849Z,13.17
2018-11-03T16:55:52.363Z,15.50
2018-11-03T16:58:24.829Z,12.13
2018-11-03T17:00:57.259Z,10.80
2018-11-03T17:03:29.796Z,13.67
2018-11-03T17:06:02.240Z,12.50
2018-11-03T17:08:34.720Z,14.73
2018-11-03T17:11:07.196Z,15.30
2018-11-03T17:13:39.922Z,11.67
2018-11-03T17:16:12.344Z,12.53
2018-11-03T17:18:44.859Z,12.23
2018-11-03T17:21:17.234Z,12.90
2018-11-03T17:23:49.822Z,14.90
2018-11-03T17:26:22.338Z,15.57
2018-11-03T17:28:55.484Z,18.60
2018-11-03T17:31:28.095Z,15.47
2018-11-03T17:34:00.836Z,17.17
2018-11-03T17:36:33.398Z,18.70
2018-11-03T17:39:07.830Z,15.40
2018-11-03T17:41:40.332Z,18.00
2018-11-03T17:44:12.977Z,17.43
2018-11-03T17:46:45.393Z,19.27
2018-11-03T17:49:18.110Z,22.53
2018-11-03T17:51:50.502Z,22.23
2018-11-03T17:54:23.042Z,20.73
2018-11-03T17:56:55.468Z,25.10
2018-11-03T17:59:28.245Z,26.80
2018-11-03T18:02:00.683Z,25.03
2018-11-03T18:04:33.126Z,23.00
2018-11-03T18:07:05.646Z,24.27
2018-11-03T18:09:38.390Z,26.83
2018-11-03T18:12:10.816Z,21.67
2018-11-03T18:14:43.306Z,24.03
2018-11-03T18:17:15.733Z,24.33
2018-11-03T18:19:48.365Z,22.93
2018-11-03T18:22:20.799Z,20.27
2018-11-03T18:24:53.215Z,22.23
2018-11-03T18:27:25.714Z,23.90
2018-11-03T18:29:58.133Z,21.97
2018-11-03T18:32:30.633Z,24.43
2018-11-03T18:35:03.183Z,24.00
2018-11-03T18:37:35.744Z,29.23
2018-11-03T18:40:08.621Z,31.90
2018-11-03T18:42:41.115Z,26.33
2018-11-03T18:45:15.042Z,31.00
2018-11-03T18:47:47.496Z,26.67
2018-11-03T18:50:19.941Z,29.70
2018-11-03T18:52:52.488Z,25.40
2018-11-03T18:55:24.908Z,29.43
2018-11-03T18:57:57.437Z,27.53
2018-11-03T19:00:29.893Z,28.67
2018-11-03T19:03:02.368Z,27.27
2018-11-03T19:05:35.873Z,28.47
2018-11-03T19:08:08.514Z,30.77
2018-11-03T19:10:40.999Z,31.37
2018-11-03T19:13:13.551Z,32.27
2018-11-03T19:15:46.069Z,34.63
2018-11-03T19:18:18.511Z,29.43
2018-11-03T19:20:50.922Z,29.50
2018-11-03T19:23:23.504Z,34.07
2018-11-03T19:25:55.963Z,28.03
2018-11-03T19:28:28.444Z,32.20
2018-11-03T19:31:00.887Z,29.80
2018-11-03T19:33:33.362Z,31.47
2018-11-03T19:36:06.023Z,30.10
2018-11-03T19:38:38.512Z,27.87
2018-11-03T19:41:11.001Z,34.40
2018-11-03T19:43:43.675Z,27.30
2018-11-03T19:46:16.166Z,27.70
2018-11-03T19:48:48.764Z,27.00
2018-11-03T19:51:21.162Z,27.63
2018-11-03T19:53:53.597Z,25.97
2018-11-03T19:56:25.982Z,27.07
2018-11-03T19:58:58.401Z,26.47
2018-11-03T20:01:30.791Z,25.27
2018-11-03T20:04:03.278Z,28.23
2018-11-03T20:06:35.813Z,25.87
2018-11-03T20:09:08.281Z,35.70
2018-11-03T20:11:40.686Z,29.53
2018-11-03T20:14:13.122Z,29.60
2018-11-03T20:16:45.547Z,35.87
2018-11-03T20:19:17.948Z,28.67
2018-11-03T20:21:50.300Z,30.40
2018-11-03T20:24:22.897Z,26.57
2018-11-03T20:26:55.335Z,28.80
2018-11-03T20:29:27.753Z,30.40
2018-11-03T20:32:00.329Z,29.60
2018-11-03T20:34:32.753Z,27.07
2018-11-03T20:37:05.163Z,27.37
2018-11-03T20:39:38.121Z,26.33
2018-11-03T20:42:10.506Z,30.67
2018-11-03T20:44:42.999Z,25.73
2018-11-03T20:47:15.525Z,32.13
2018-11-03T20:49:47.937Z,34.40
2018-11-03T20:52:20.580Z,27.73
2018-11-03T20:54:53.133Z,35.77
2018-11-03T20:57:25.716Z,30.60
2018-11-03T20:59:58.117Z,36.13
2018-11-03T21:02:30.462Z,31.40
2018-11-03T21:05:02.902Z,39.53
2018-11-03T21:07:35.417Z,31.20
2018-11-03T21:10:08.010Z,32.17
2018-11-03T21:12:40.396Z,33.90
2018-11-03T21:15:12.837Z,31.57
2018-11-03T21:17:45.259Z,30.80
2018-11-03T21:20:17.727Z,27.87
2018-11-03T21:22:50.211Z,29.90
2018-11-03T21:25:22.688Z,26.80
2018-11-03T21:27:55.562Z,31.00
2018-11-03T21:30:27.981Z,28.53
2018-11-03T21:33:00.568Z,27.80
2018-11-03T21:35:32.900Z,29.53
2018-11-03T21:38:05.366Z,22.33
2018-11-03T21:40:37.861Z,27.80
2018-11-03T21:43:10.306Z,26.53
2018-11-03T21:45:42.775Z,29.77
2018-11-03T21:48:15.335Z,27.40
2018-11-03T21:50:47.858Z,25.90
2018-11-03T21:53:20.293Z,28.47
2018-11-03T21:55:52.827Z,24.90
2018-11-03T21:58:25.215Z,29.23
2018-11-03T22:00:57.938Z,24.20
2018-11-03T22:03:30.461Z,25.27
2018-11-03T22:06:02.980Z,25.70
2018-11-03T22:08:35.532Z,31.33
2018-11-03T22:11:08.077Z,27.37
2018-11-03T22:13:40.957Z,31.57
2018-11-03T22:16:13.458Z,26.37
2018-11-03T22:18:45.873Z,23.77
2018-11-03T22:21:18.342Z,25.07
2018-11-03T22:23:50.699Z,26.93
2018-11-03T22:26:23.088Z,24.40
2018-11-03T22:28:57.352Z,25.70
2018-11-03T22:31:30.059Z,26.00
2018-11-03T22:34:02.523Z,23.47
2018-11-03T22:36:35.010Z,27.03
2018-11-03T22:39:07.850Z,27.97
2018-11-03T22:41:40.352Z,31.30
2018-11-03T22:44:12.969Z,31.97
2018-11-03T22:46:45.406Z,23.67
2018-11-03T22:49:18.027Z,27.33
2018-11-03T22:51:50.655Z,27.77
2018-11-03T22:54:23.038Z,24.40
2018-11-03T22:56:55.551Z,26.33
2018-11-03T22:59:28.005Z,26.67
2018-11-03T23:02:00.542Z,23.93
2018-11-03T23:04:32.986Z,29.23
2018-11-03T23:07:05.515Z,28.67
2018-11-03T23:09:38.191Z,23.97
2018-11-03T23:12:10.722Z,27.50
2018-11-03T23:14:43.272Z,24.00
2018-11-03T23:17:15.740Z,26.83
2018-11-03T23:19:48.163Z,29.07
2018-11-03T23:22:20.601Z,55.60
2018-11-03T23:24:53.025Z,46.33
2018-11-03T23:27:25.543Z,41.10
2018-11-03T23:29:58.158Z,37.93
2018-11-03T23:32:30.515Z,32.27
2018-11-03T23:35:02.990Z,29.63
2018-11-03T23:37:35.433Z,30.10
2018-11-03T23:40:10.087Z,25.83
2018-11-03T23:42:42.562Z,33.33
2018-11-03T23:45:14.995Z,24.43
2018-11-03T23:47:48.015Z,27.93
2018-11-03T23:50:20.518Z,25.03
2018-11-03T23:52:52.990Z,26.47
2018-11-03T23:55:25.725Z,26.87
2018-11-03T23:57:58.175Z,26.43
